createdAt,value
2018-03-04T00:00:26.848Z,3.20
2018-03-04T00:02:54.365Z,3.10
2018-03-04T00:05:21.905Z,3.20
2018-03-04T00:07:49.420Z,3.10
2018-03-04T00:10:16.970Z,3.20
2018-03-04T00:12:44.503Z,3.20
2018-03-04T00:15:12.048Z,3.20
2018-03-04T00:17:39.579Z,3.20
2018-03-04T00:20:07.112Z,3.30
2018-03-04T00:22:41.347Z,3.20
2018-03-04T00:25:08.940Z,3.20
2018-03-04T00:27:36.452Z,3.20
2018-03-04T00:30:03.980Z,3.20
2018-03-04T00:32:31.539Z,3.20
2018-03-04T00:34:59.068Z,3.20
2018-03-04T00:37:26.608Z,3.30
2018-03-04T00:39:54.151Z,3.30
2018-03-04T00:42:21.693Z,3.30
2018-03-04T00:44:49.989Z,3.30
2018-03-04T00:47:18.293Z,3.30
2018-03-04T00:49:46.608Z,3.30
2018-03-04T00:52:14.158Z,3.30
2018-03-04T00:54:42.466Z,3.30
2018-03-04T00:57:10.766Z,3.30
2018-03-04T00:59:38.277Z,3.30
2018-03-04T01:02:06.055Z,3.40
2018-03-04T01:04:33.576Z,3.40
2018-03-04T01:07:01.128Z,3.40
2018-03-04T01:09:28.641Z,3.30
2018-03-04T01:11:56.180Z,3.30
2018-03-04T01:14:23.688Z,3.30
2018-03-04T01:16:51.254Z,3.30
2018-03-04T01:19:18.774Z,3.30
2018-03-04T01:21:46.316Z,3.30
2018-03-04T01:24:13.842Z,3.30
2018-03-04T01:26:41.392Z,3.30
2018-03-04T01:29:09.693Z,3.20
2018-03-04T01:31:37.212Z,3.20
2018-03-04T01:34:04.765Z,3.20
2018-03-04T01:36:32.306Z,3.10
2018-03-04T01:38:59.851Z,3.10
2018-03-04T01:41:27.379Z,3.10
2018-03-04T01:43:54.922Z,3.00
2018-03-04T01:46:23.012Z,3.00
2018-03-04T01:48:50.558Z,3.00
2018-03-04T01:51:18.978Z,3.00
2018-03-04T01:53:46.509Z,2.90
2018-03-04T01:56:14.025Z,2.90
2018-03-04T01:58:41.599Z,2.80
2018-03-04T02:01:09.117Z,2.70
2018-03-04T02:03:36.646Z,2.70
2018-03-04T02:06:04.160Z,2.60
2018-03-04T02:08:31.702Z,2.60
2018-03-04T02:10:59.208Z,2.50
2018-03-04T02:13:26.742Z,2.50
2018-03-04T02:15:54.585Z,2.40
2018-03-04T02:18:22.119Z,2.40
2018-03-04T02:20:49.638Z,2.30
2018-03-04T02:23:17.171Z,2.10
2018-03-04T02:25:44.701Z,2.10
2018-03-04T02:28:12.228Z,2.20
2018-03-04T02:30:40.536Z,2.10
2018-03-04T02:33:08.851Z,2.20
2018-03-04T02:35:36.380Z,2.20
2018-03-04T02:38:04.676Z,2.20
2018-03-04T02:40:32.969Z,2.20
2018-03-04T02:43:00.540Z,2.20
2018-03-04T02:45:28.079Z,2.10
2018-03-04T02:47:55.601Z,2.10
2018-03-04T02:50:23.126Z,2.00
2018-03-04T02:52:50.645Z,2.00
2018-03-04T02:55:18.197Z,1.90
2018-03-04T02:57:46.498Z,1.90
2018-03-04T03:00:14.042Z,1.90
2018-03-04T03:02:42.372Z,1.80
2018-03-04T03:05:09.914Z,1.80
2018-03-04T03:07:38.184Z,1.90
2018-03-04T03:10:06.492Z,2.00
2018-03-04T03:12:34.770Z,2.00
2018-03-04T03:15:03.105Z,2.10
2018-03-04T03:17:30.645Z,2.10
2018-03-04T03:19:58.216Z,2.10
2018-03-04T03:22:26.499Z,2.10
2018-03-04T03:24:54.817Z,2.20
2018-03-04T03:27:22.336Z,2.10
2018-03-04T03:29:49.869Z,2.10
2018-03-04T03:32:17.398Z,2.10
2018-03-04T03:34:45.704Z,2.00
2018-03-04T03:37:13.238Z,2.00
2018-03-04T03:39:40.820Z,2.00
2018-03-04T03:42:08.345Z,2.10
2018-03-04T03:44:35.887Z,2.10
2018-03-04T03:47:03.589Z,2.20
2018-03-04T03:49:31.142Z,2.40
2018-03-04T03:51:58.690Z,2.40
2018-03-04T03:54:26.230Z,2.40
2018-03-04T03:56:53.779Z,2.30
2018-03-04T03:59:21.296Z,2.20
2018-03-04T04:01:48.828Z,2.10
2018-03-04T04:04:16.381Z,2.00
2018-03-04T04:06:43.919Z,2.00
2018-03-04T04:09:11.424Z,1.90
2018-03-04T04:11:38.964Z,1.80
2018-03-04T04:14:06.483Z,1.70
2018-03-04T04:16:34.026Z,1.70
2018-03-04T04:19:02.302Z,1.70
2018-03-04T04:21:30.621Z,1.70
2018-03-04T04:23:58.149Z,1.70
2018-03-04T04:26:25.693Z,1.70
2018-03-04T04:28:53.209Z,1.70
2018-03-04T04:31:21.511Z,1.70
2018-03-04T04:33:49.040Z,1.60
2018-03-04T04:36:16.582Z,1.70
2018-03-04T04:38:44.102Z,1.80
2018-03-04T04:41:11.635Z,1.80
2018-03-04T04:43:39.171Z,1.90
2018-03-04T04:46:06.720Z,1.80
2018-03-04T04:48:34.237Z,1.80
2018-03-04T04:51:01.772Z,1.80
2018-03-04T04:53:30.065Z,1.70
2018-03-04T04:55:58.373Z,1.70
2018-03-04T04:58:25.947Z,1.70
2018-03-04T05:00:53.455Z,1.70
2018-03-04T05:03:21.000Z,1.70
2018-03-04T05:05:48.548Z,1.70
2018-03-04T05:08:16.080Z,1.70
2018-03-04T05:10:43.603Z,1.70
2018-03-04T05:13:11.133Z,1.60
2018-03-04T05:15:38.645Z,1.60
2018-03-04T05:18:06.186Z,1.60
2018-03-04T05:20:33.722Z,1.70
2018-03-04T05:23:01.282Z,1.70
2018-03-04T05:25:28.801Z,1.70
2018-03-04T05:27:57.099Z,1.50
2018-03-04T05:30:25.375Z,1.50
2018-03-04T05:32:52.938Z,1.50
2018-03-04T05:35:21.224Z,1.40
2018-03-04T05:37:48.772Z,1.40
2018-03-04T05:40:16.301Z,1.30
2018-03-04T05:42:43.860Z,1.30
2018-03-04T05:45:12.144Z,1.30
2018-03-04T05:47:40.458Z,1.30
2018-03-04T05:50:07.972Z,1.30
2018-03-04T05:52:35.511Z,1.20
2018-03-04T05:55:03.041Z,1.30
2018-03-04T05:57:30.585Z,1.20
2018-03-04T05:59:58.109Z,1.20
2018-03-04T06:02:25.641Z,1.30
2018-03-04T06:04:53.159Z,1.20
2018-03-04T06:07:21.523Z,1.30
2018-03-04T06:09:49.038Z,1.40
2018-03-04T06:12:16.618Z,1.40
2018-03-04T06:14:44.134Z,1.40
2018-03-04T06:17:12.441Z,1.40
2018-03-04T06:19:40.761Z,1.40
2018-03-04T06:22:08.275Z,1.40
2018-03-04T06:24:35.814Z,1.50
2018-03-04T06:27:03.347Z,1.40
2018-03-04T06:29:30.885Z,1.50
2018-03-04T06:31:58.426Z,1.50
2018-03-04T06:34:25.968Z,1.50
2018-03-04T06:36:53.494Z,1.50
2018-03-04T06:39:21.050Z,1.50
2018-03-04T06:41:48.576Z,1.60
2018-03-04T06:44:16.886Z,1.70
2018-03-04T06:46:44.408Z,1.70
2018-03-04T06:49:11.936Z,1.80
2018-03-04T06:51:39.452Z,1.80
2018-03-04T06:54:06.976Z,1.80
2018-03-04T06:56:34.514Z,1.80
2018-03-04T06:59:02.823Z,2.00
2018-03-04T07:01:30.345Z,1.90
2018-03-04T07:03:57.881Z,2.00
2018-03-04T07:06:25.397Z,2.20
2018-03-04T07:08:53.718Z,2.40
2018-03-04T07:11:21.999Z,2.30
2018-03-04T07:13:49.561Z,2.30
2018-03-04T07:16:17.094Z,2.40
2018-03-04T07:18:44.621Z,2.40
2018-03-04T07:21:12.179Z,2.50
2018-03-04T07:23:40.490Z,2.70
2018-03-04T07:26:08.030Z,2.70
2018-03-04T07:28:35.573Z,2.80
2018-03-04T07:31:03.095Z,2.90
2018-03-04T07:33:31.373Z,3.10
2018-03-04T07:35:59.679Z,3.20
2018-03-04T07:38:27.958Z,3.20
2018-03-04T07:40:56.276Z,3.30
2018-03-04T07:43:23.796Z,3.30
2018-03-04T07:45:51.349Z,3.40
2018-03-04T07:48:18.873Z,3.50
2018-03-04T07:50:47.179Z,3.60
2018-03-04T07:53:14.713Z,3.60
2018-03-04T07:55:42.249Z,3.60
2018-03-04T07:58:09.824Z,3.70
2018-03-04T08:00:37.373Z,3.70
2018-03-04T08:03:04.904Z,3.80
2018-03-04T08:05:32.437Z,3.80
2018-03-04T08:07:59.957Z,3.90
2018-03-04T08:10:28.273Z,4.10
2018-03-04T08:12:55.793Z,4.10
2018-03-04T08:15:23.333Z,4.10
2018-03-04T08:17:50.849Z,4.20
2018-03-04T08:20:18.403Z,4.30
2018-03-04T08:22:45.929Z,4.40
2018-03-04T08:25:25.289Z,4.50
2018-03-04T08:28:04.466Z,4.50
2018-03-04T08:30:32.012Z,4.70
2018-03-04T08:32:59.529Z,4.80
2018-03-04T08:35:27.089Z,4.80
2018-03-04T08:37:54.623Z,4.90
2018-03-04T08:40:22.159Z,5.00
2018-03-04T08:42:50.453Z,5.20
2018-03-04T08:45:18.743Z,5.20
2018-03-04T08:47:47.041Z,5.30
2018-03-04T08:50:14.570Z,5.30
2018-03-04T08:52:42.121Z,5.30
2018-03-04T08:55:09.643Z,5.40
2018-03-04T08:57:37.187Z,5.60
2018-03-04T09:00:04.695Z,5.70
2018-03-04T09:02:33.052Z,5.70
2018-03-04T09:05:00.576Z,5.80
2018-03-04T09:07:28.118Z,5.80
2018-03-04T09:09:56.396Z,6.00
2018-03-04T09:12:23.946Z,6.00
2018-03-04T09:14:51.465Z,6.20
2018-03-04T09:17:18.999Z,6.20
2018-03-04T09:19:46.535Z,6.40
2018-03-04T09:22:14.092Z,6.50
2018-03-04T09:24:41.607Z,6.70
2018-03-04T09:27:09.200Z,6.70
2018-03-04T09:29:36.727Z,6.80
2018-03-04T09:32:04.261Z,6.80
2018-03-04T09:34:32.547Z,7.00
2018-03-04T09:37:00.873Z,7.10
2018-03-04T09:39:28.406Z,7.10
2018-03-04T09:41:56.815Z,7.20
2018-03-04T09:44:24.357Z,7.20
2018-03-04T09:46:52.708Z,7.40
2018-03-04T09:49:20.830Z,7.40
2018-03-04T09:51:48.393Z,7.60
2018-03-04T09:54:15.931Z,7.70
2018-03-04T09:56:43.595Z,7.80
2018-03-04T09:59:11.152Z,7.90
2018-03-04T10:01:38.692Z,8.00
2018-03-04T10:04:06.286Z,8.10
2018-03-04T10:06:34.608Z,8.20
2018-03-04T10:09:02.157Z,8.40
2018-03-04T10:11:29.709Z,8.60
2018-03-04T10:13:58.130Z,8.60
2018-03-04T10:16:25.644Z,8.60
2018-03-04T10:18:53.200Z,8.80
2018-03-04T10:21:20.803Z,8.90
2018-03-04T10:23:48.344Z,8.90
2018-03-04T10:26:16.883Z,8.90
2018-03-04T10:28:45.529Z,9.10
2018-03-04T10:31:15.504Z,9.20
2018-03-04T10:33:43.840Z,9.50
2018-03-04T10:36:11.365Z,9.50
2018-03-04T10:38:38.876Z,9.70
2018-03-04T10:41:06.414Z,9.80
2018-03-04T10:43:34.704Z,9.90
2018-03-04T10:46:02.305Z,9.80
2018-03-04T10:48:29.820Z,10.00
2018-03-04T10:50:57.384Z,10.10
2018-03-04T10:53:27.068Z,10.10
2018-03-04T10:55:58.097Z,10.30
2018-03-04T10:58:25.629Z,10.30
2018-03-04T11:00:56.967Z,10.40
2018-03-04T11:03:24.532Z,10.50
2018-03-04T11:05:52.090Z,10.60
2018-03-04T11:08:20.378Z,10.70
2018-03-04T11:10:47.963Z,10.70
2018-03-04T11:13:15.528Z,10.80
2018-03-04T11:15:43.856Z,10.70
2018-03-04T11:18:11.473Z,10.70
2018-03-04T11:20:39.799Z,10.80
2018-03-04T11:23:07.305Z,10.80
2018-03-04T11:25:34.848Z,10.70
2018-03-04T11:28:02.394Z,10.80
2018-03-04T11:30:29.994Z,10.90
2018-03-04T11:32:57.523Z,10.90
2018-03-04T11:35:25.129Z,10.90
2018-03-04T11:37:52.821Z,11.00
2018-03-04T11:40:20.440Z,11.10
2018-03-04T11:42:48.138Z,11.20
2018-03-04T11:45:15.669Z,11.20
2018-03-04T11:47:43.209Z,11.30
2018-03-04T11:50:13.368Z,11.40
2018-03-04T11:52:40.940Z,11.50
2018-03-04T11:55:09.083Z,11.70
2018-03-04T11:57:37.387Z,11.80
2018-03-04T12:02:48.494Z,12.00
2018-03-04T12:05:16.024Z,11.90
2018-03-04T12:07:44.350Z,12.10
2018-03-04T12:10:18.456Z,12.10
2018-03-04T12:12:46.005Z,12.10
2018-03-04T12:15:13.841Z,12.30
2018-03-04T12:17:41.397Z,12.40
2018-03-04T12:20:08.997Z,12.40
2018-03-04T12:22:43.067Z,12.50
2018-03-04T12:25:10.585Z,12.60
2018-03-04T12:27:38.131Z,12.60
2018-03-04T12:30:05.796Z,12.50
2018-03-04T12:32:34.122Z,12.60
2018-03-04T12:35:01.693Z,12.60
2018-03-04T12:37:29.233Z,12.70
2018-03-04T12:39:56.806Z,12.70
2018-03-04T12:42:25.086Z,12.80
2018-03-04T12:44:52.604Z,12.80
2018-03-04T12:47:20.181Z,12.90
2018-03-04T12:49:47.753Z,13.00
2018-03-04T12:52:15.317Z,12.70
2018-03-04T12:54:42.842Z,12.50
2018-03-04T12:57:10.461Z,12.50
2018-03-04T12:59:38.008Z,12.50
2018-03-04T13:02:05.547Z,12.50
2018-03-04T13:04:33.072Z,12.60
2018-03-04T13:07:00.609Z,12.80
2018-03-04T13:09:28.929Z,13.20
2018-03-04T13:11:56.448Z,13.20
2018-03-04T13:14:24.022Z,13.30
2018-03-04T13:16:52.324Z,13.20
2018-03-04T13:19:19.886Z,13.20
2018-03-04T13:21:47.418Z,13.30
2018-03-04T13:24:15.031Z,13.40
2018-03-04T13:26:43.520Z,13.60
2018-03-04T13:29:11.062Z,13.60
2018-03-04T13:31:38.581Z,13.70
2018-03-04T13:34:06.911Z,14.00
2018-03-04T13:36:34.424Z,14.00
2018-03-04T13:39:01.960Z,14.10
2018-03-04T13:41:29.476Z,14.10
2018-03-04T13:43:57.009Z,14.00
2018-03-04T13:46:24.538Z,14.00
2018-03-04T13:48:52.851Z,13.50
2018-03-04T13:51:20.368Z,13.40
2018-03-04T13:53:47.904Z,13.20
2018-03-04T13:56:15.417Z,13.10
2018-03-04T13:58:42.951Z,13.10
2018-03-04T14:01:10.477Z,13.30
2018-03-04T14:03:38.794Z,13.40
2018-03-04T14:06:06.370Z,13.30
2018-03-04T14:08:33.922Z,13.40
2018-03-04T14:11:02.209Z,13.30
2018-03-04T14:13:30.560Z,13.10
2018-03-04T14:15:58.082Z,13.10
2018-03-04T14:18:25.624Z,13.00
2018-03-04T14:20:53.148Z,13.00
2018-03-04T14:23:39.365Z,12.80
2018-03-04T14:26:06.910Z,12.70
2018-03-04T14:28:34.518Z,12.60
2018-03-04T14:31:02.064Z,12.60
2018-03-04T14:33:29.617Z,12.60
2018-03-04T14:35:57.911Z,12.40
2018-03-04T14:38:26.203Z,12.30
2018-03-04T14:40:54.547Z,12.30
2018-03-04T14:43:22.081Z,12.30
2018-03-04T14:45:49.645Z,12.20
2018-03-04T14:48:17.188Z,12.10
2018-03-04T14:50:45.512Z,11.80
2018-03-04T14:53:13.055Z,11.80
2018-03-04T14:55:41.371Z,11.50
2018-03-04T14:58:08.889Z,11.50
2018-03-04T15:00:37.215Z,11.30
2018-03-04T15:03:05.514Z,11.20
2018-03-04T15:05:33.083Z,11.20
2018-03-04T15:08:01.377Z,11.10
2018-03-04T15:10:28.928Z,11.10
2018-03-04T15:12:56.462Z,11.10
2018-03-04T15:15:24.010Z,10.90
2018-03-04T15:17:51.558Z,11.00
2018-03-04T15:20:19.876Z,10.90
2018-03-04T15:22:47.404Z,10.90
2018-03-04T15:25:14.960Z,10.80
2018-03-04T15:27:42.478Z,10.80
2018-03-04T15:30:10.055Z,10.80
2018-03-04T15:32:37.583Z,10.80
2018-03-04T15:35:05.124Z,10.80
2018-03-04T15:37:33.443Z,10.80
2018-03-04T15:40:00.997Z,10.80
2018-03-04T15:42:28.518Z,10.80
2018-03-04T15:44:56.801Z,10.70
2018-03-04T15:47:25.119Z,10.60
2018-03-04T15:49:52.654Z,10.60
2018-03-04T15:52:21.000Z,10.50
2018-03-04T15:54:49.303Z,10.40
2018-03-04T15:57:16.848Z,10.30
2018-03-04T15:59:45.132Z,10.20
2018-03-04T16:02:12.728Z,10.20
2018-03-04T16:04:40.831Z,10.20
2018-03-04T16:07:08.398Z,10.10
2018-03-04T16:09:35.921Z,10.10
2018-03-04T16:12:03.703Z,10.10
2018-03-04T16:14:31.240Z,10.10
2018-03-04T16:16:58.803Z,10.10
2018-03-04T16:19:26.342Z,10.00
2018-03-04T16:21:53.904Z,9.90
2018-03-04T16:24:21.419Z,9.90
2018-03-04T16:26:48.978Z,9.80
2018-03-04T16:29:16.506Z,9.80
2018-03-04T16:31:44.038Z,9.80
2018-03-04T16:34:11.611Z,9.80
2018-03-04T16:36:39.154Z,9.70
2018-03-04T16:39:07.445Z,9.70
2018-03-04T16:41:34.960Z,9.70
2018-03-04T16:44:03.270Z,9.50
2018-03-04T16:46:30.800Z,9.60
2018-03-04T16:48:59.059Z,9.50
2018-03-04T16:51:26.603Z,9.40
2018-03-04T16:53:54.148Z,9.30
2018-03-04T16:56:22.435Z,9.30
2018-03-04T16:58:51.443Z,9.20
2018-03-04T17:01:19.107Z,9.20
2018-03-04T17:03:47.447Z,9.00
2018-03-04T17:06:21.119Z,9.00
2018-03-04T17:08:49.612Z,9.00
2018-03-04T17:11:17.911Z,8.80
2018-03-04T17:13:47.488Z,8.80
2018-03-04T17:16:15.211Z,8.80
2018-03-04T17:18:43.514Z,8.60
2018-03-04T17:21:11.802Z,8.60
2018-03-04T17:23:39.351Z,8.60
2018-03-04T17:26:06.869Z,8.60
2018-03-04T17:28:34.470Z,8.50
2018-03-04T17:31:02.040Z,8.50
2018-03-04T17:33:29.585Z,8.40
2018-03-04T17:35:57.106Z,8.40
2018-03-04T17:38:24.651Z,8.40
2018-03-04T17:40:52.164Z,8.40
2018-03-04T17:43:20.476Z,8.30
2018-03-04T17:45:47.994Z,8.30
2018-03-04T17:48:15.551Z,8.30
2018-03-04T17:50:43.066Z,8.40
2018-03-04T17:53:11.374Z,8.30
2018-03-04T17:55:38.902Z,8.30
2018-03-04T17:58:06.420Z,8.40
2018-03-04T18:00:33.957Z,8.30
2018-03-04T18:03:01.506Z,8.40
2018-03-04T18:05:29.058Z,8.30
2018-03-04T18:07:56.587Z,8.30
2018-03-04T18:10:24.927Z,8.20
2018-03-04T18:12:52.477Z,8.20
2018-03-04T18:15:20.026Z,8.20
2018-03-04T18:17:47.553Z,8.20
2018-03-04T18:20:15.104Z,8.20
2018-03-04T18:22:42.640Z,8.20
2018-03-04T18:25:10.954Z,8.10
2018-03-04T18:27:38.473Z,8.10
2018-03-04T18:30:06.013Z,8.20
2018-03-04T18:32:33.524Z,8.20
2018-03-04T18:35:01.062Z,8.20
2018-03-04T18:37:28.612Z,8.10
2018-03-04T18:39:56.913Z,8.20
2018-03-04T18:42:24.426Z,8.20
2018-03-04T18:44:51.973Z,8.10
2018-03-04T18:47:19.566Z,8.10
2018-03-04T18:49:47.142Z,8.00
2018-03-04T18:52:14.649Z,8.10
2018-03-04T18:54:42.192Z,8.10
2018-03-04T18:57:09.723Z,8.10
2018-03-04T18:59:37.246Z,8.00
2018-03-04T19:02:05.545Z,8.00
2018-03-04T19:04:33.836Z,7.90
2018-03-04T19:07:02.125Z,8.00
2018-03-04T19:09:30.412Z,7.90
2018-03-04T19:11:58.723Z,7.80
2018-03-04T19:14:26.285Z,7.80
2018-03-04T19:16:54.581Z,7.80
2018-03-04T19:19:22.092Z,7.80
2018-03-04T19:21:50.413Z,7.80
2018-03-04T19:24:17.938Z,7.80
2018-03-04T19:26:45.468Z,7.90
2018-03-04T19:29:13.769Z,7.90
2018-03-04T19:31:41.501Z,7.90
2018-03-04T19:34:09.012Z,7.90
2018-03-04T19:36:37.364Z,7.80
2018-03-04T19:39:04.885Z,7.80
2018-03-04T19:41:32.490Z,7.80
2018-03-04T19:44:00.012Z,7.80
2018-03-04T19:46:28.558Z,7.80
2018-03-04T19:48:56.096Z,7.80
2018-03-04T19:51:23.627Z,7.90
2018-03-04T19:53:51.138Z,7.80
2018-03-04T19:56:18.694Z,7.80
2018-03-04T19:58:46.959Z,7.80
2018-03-04T20:01:14.506Z,7.70
2018-03-04T20:03:42.016Z,7.80
2018-03-04T20:06:09.623Z,7.70
2018-03-04T20:08:37.132Z,7.60
2018-03-04T20:11:04.680Z,7.60
2018-03-04T20:13:32.198Z,7.60
2018-03-04T20:15:59.746Z,7.60
2018-03-04T20:18:27.305Z,7.60
2018-03-04T20:20:54.964Z,7.60
2018-03-04T20:23:22.483Z,7.60
2018-03-04T20:25:50.038Z,7.70
2018-03-04T20:28:19.077Z,7.60
2018-03-04T20:30:47.359Z,7.60
2018-03-04T20:33:14.894Z,7.60
2018-03-04T20:35:42.409Z,7.50
2018-03-04T20:38:09.944Z,7.40
2018-03-04T20:40:37.452Z,7.40
2018-03-04T20:43:05.762Z,7.30
2018-03-04T20:45:33.272Z,7.30
2018-03-04T20:48:00.805Z,7.20
2018-03-04T20:50:28.344Z,7.20
2018-03-04T20:52:55.890Z,7.20
2018-03-04T20:55:23.422Z,7.20
2018-03-04T20:57:50.961Z,7.20
2018-03-04T21:00:18.472Z,7.20
2018-03-04T21:02:46.069Z,7.20
2018-03-04T21:05:13.685Z,7.10
2018-03-04T21:07:41.399Z,7.00
2018-03-04T21:10:08.953Z,6.90
2018-03-04T21:12:38.377Z,6.90
2018-03-04T21:15:07.134Z,6.90
2018-03-04T21:17:34.729Z,6.80
2018-03-04T21:20:03.006Z,6.90
2018-03-04T21:22:30.545Z,6.90
2018-03-04T21:24:58.064Z,6.90
2018-03-04T21:27:26.378Z,7.00
2018-03-04T21:29:53.898Z,7.00
2018-03-04T21:32:21.428Z,7.10
2018-03-04T21:34:49.147Z,7.10
2018-03-04T21:37:16.683Z,7.10
2018-03-04T21:39:44.370Z,7.10
2018-03-04T21:42:12.102Z,7.20
2018-03-04T21:44:39.831Z,7.30
2018-03-04T21:47:07.357Z,7.10
2018-03-04T21:49:35.647Z,7.10
2018-03-04T21:52:03.175Z,7.00
2018-03-04T21:54:30.696Z,7.00
2018-03-04T21:56:58.293Z,7.00
2018-03-04T21:59:25.831Z,7.00
2018-03-04T22:01:53.347Z,6.90
2018-03-04T22:04:20.872Z,7.00
2018-03-04T22:06:49.159Z,6.90
2018-03-04T22:09:17.443Z,7.00
2018-03-04T22:11:45.768Z,7.00
2018-03-04T22:14:13.305Z,7.00
2018-03-04T22:16:41.579Z,6.90
2018-03-04T22:19:09.753Z,6.90
2018-03-04T22:21:37.276Z,7.00
2018-03-04T22:24:04.809Z,7.00
2018-03-04T22:26:32.334Z,7.00
2018-03-04T22:28:59.888Z,7.00
2018-03-04T22:31:28.240Z,6.90
2018-03-04T22:33:55.776Z,6.90
2018-03-04T22:36:23.283Z,6.90
2018-03-04T22:38:50.812Z,7.00
2018-03-04T22:41:18.331Z,7.10
2018-03-04T22:43:45.862Z,7.10
2018-03-04T22:46:15.331Z,7.10
2018-03-04T22:48:44.217Z,7.20
2018-03-04T22:51:11.741Z,7.20
2018-03-04T22:53:39.275Z,7.20
2018-03-04T22:56:07.606Z,7.30
2018-03-04T22:58:35.150Z,7.20
2018-03-04T23:01:02.663Z,7.30
2018-03-04T23:03:30.217Z,7.30
2018-03-04T23:05:57.729Z,7.20
2018-03-04T23:08:25.349Z,7.30
2018-03-04T23:10:52.884Z,7.30
2018-03-04T23:13:20.433Z,7.30
2018-03-04T23:15:47.959Z,7.20
2018-03-04T23:18:15.511Z,7.10
2018-03-04T23:20:43.791Z,7.10
2018-03-04T23:23:11.330Z,7.10
2018-03-04T23:25:39.667Z,7.10
2018-03-04T23:28:07.599Z,7.00
2018-03-04T23:30:36.064Z,7.10
2018-03-04T23:33:03.754Z,7.10
2018-03-04T23:35:32.374Z,7.20
2018-03-04T23:38:00.084Z,7.20
2018-03-04T23:40:27.649Z,7.20
2018-03-04T23:42:55.163Z,7.20
2018-03-04T23:45:22.697Z,7.30
2018-03-04T23:47:50.980Z,7.20
2018-03-04T23:50:18.504Z,7.20
2018-03-04T23:52:46.025Z,7.10
2018-03-04T23:55:14.320Z,6.90
2018-03-04T23:57:42.593Z,6.80
